Tulln, Austria
Current Conditions -  °F | °C
As of 9:50 PM on Wednesday 26 Nov 2014 (Local Time) from LOXT Reporting Station
Broken Clouds Broken Clouds  
Wind Chill: 32°   Ceiling: 1600
Heat Index: 39°   Visibility: 4mi
Dew Point: 34°   Wind: 13mph
Humidity: 81%   Direction: 100°E
Pressure: 30.12"   Gusts: NA
Location:  48.33°N, 16.06°E
Report Text: LOXT 261950Z 10011KT 070V130 7000 BKN016SC 04/01 Q1020 RMK OVC
Loading
Personal Weather Stations






























Interactive Weather Map New forecast layout! Learn more

10-Day Weather Forecast

Advertisements
Track Severe Weather on mobile